createdAt,value
2023-04-08T00:00:43.131Z,0.00
2023-04-08T00:01:43.219Z,0.00
2023-04-08T00:02:43.282Z,0.00
2023-04-08T00:03:43.251Z,0.00
2023-04-08T00:04:43.141Z,0.00
2023-04-08T00:05:43.095Z,0.00
2023-04-08T00:06:43.085Z,0.00
2023-04-08T00:07:43.072Z,0.00
2023-04-08T00:08:43.055Z,0.00
2023-04-08T00:09:43.046Z,0.00
2023-04-08T00:10:43.035Z,0.00
2023-04-08T00:11:43.039Z,0.00
2023-04-08T00:12:43.006Z,0.00
2023-04-08T00:13:42.995Z,0.00
2023-04-08T00:14:42.997Z,0.00
2023-04-08T00:15:42.975Z,0.00
2023-04-08T00:16:43.049Z,0.00
2023-04-08T00:17:43.030Z,0.00
2023-04-08T00:18:42.951Z,0.00
2023-04-08T00:19:42.941Z,0.00
2023-04-08T00:20:42.920Z,0.00
2023-04-08T00:21:42.928Z,0.00
2023-04-08T00:22:42.900Z,0.00
2023-04-08T00:23:42.910Z,0.00
2023-04-08T00:24:42.878Z,0.00
2023-04-08T00:25:42.869Z,0.00
2023-04-08T00:26:42.871Z,0.00
2023-04-08T00:27:42.850Z,0.00
2023-04-08T00:28:42.853Z,0.00
2023-04-08T00:29:42.826Z,0.00
2023-04-08T00:30:42.862Z,0.00
2023-04-08T00:31:42.820Z,0.00
2023-04-08T00:32:42.819Z,0.00
2023-04-08T00:33:42.795Z,0.00
2023-04-08T00:34:42.776Z,0.00
2023-04-08T00:35:42.781Z,0.00
2023-04-08T00:36:42.774Z,0.00
2023-04-08T00:37:42.771Z,0.00
2023-04-08T00:38:42.744Z,0.00
2023-04-08T00:39:42.725Z,0.00
2023-04-08T00:40:42.717Z,0.00
2023-04-08T00:41:42.713Z,0.00
2023-04-08T00:42:42.705Z,0.00
2023-04-08T00:43:42.685Z,0.00
2023-04-08T00:44:42.674Z,0.00
2023-04-08T00:45:42.670Z,0.00
2023-04-08T00:46:42.692Z,0.00
2023-04-08T00:47:42.679Z,0.00
2023-04-08T00:48:42.645Z,0.00
2023-04-08T00:49:42.620Z,0.00
2023-04-08T00:50:42.624Z,0.00
2023-04-08T00:51:42.609Z,0.00
2023-04-08T00:52:42.599Z,0.00
2023-04-08T00:53:42.572Z,0.00
2023-04-08T00:54:42.574Z,0.00
2023-04-08T00:55:42.577Z,0.00
2023-04-08T00:56:42.564Z,0.00
2023-04-08T00:57:42.540Z,0.00
2023-04-08T00:58:42.523Z,0.00
2023-04-08T00:59:42.517Z,0.00
2023-04-08T01:00:42.510Z,0.00
2023-04-08T01:01:42.665Z,0.00
2023-04-08T01:02:42.804Z,0.00
2023-04-08T01:03:42.592Z,0.00
2023-04-08T01:04:42.465Z,0.00
2023-04-08T01:05:42.452Z,0.00
2023-04-08T01:06:42.461Z,0.00
2023-04-08T01:07:42.439Z,0.00
2023-04-08T01:08:42.422Z,0.00
2023-04-08T01:09:42.406Z,0.00
2023-04-08T01:10:42.396Z,0.00
2023-04-08T01:11:42.412Z,0.00
2023-04-08T01:12:42.378Z,0.00
2023-04-08T01:13:42.378Z,0.00
2023-04-08T01:14:42.394Z,0.00
2023-04-08T01:15:42.361Z,0.00
2023-04-08T01:16:42.343Z,0.00
2023-04-08T01:17:42.356Z,0.00
2023-04-08T01:18:42.319Z,0.00
2023-04-08T01:19:42.318Z,0.00
2023-04-08T01:20:42.309Z,0.00
2023-04-08T01:21:42.301Z,0.00
2023-04-08T01:22:42.272Z,0.00
2023-04-08T01:23:42.276Z,0.00
2023-04-08T01:24:42.254Z,0.00
2023-04-08T01:25:42.247Z,0.00
2023-04-08T01:26:42.233Z,0.00
2023-04-08T01:27:42.229Z,0.00
2023-04-08T01:28:42.211Z,0.00
2023-04-08T01:29:42.199Z,0.00
2023-04-08T01:30:42.195Z,0.00
2023-04-08T01:31:42.267Z,0.00
2023-04-08T01:32:42.265Z,0.00
2023-04-08T01:33:42.158Z,0.00
2023-04-08T01:34:42.148Z,0.00
2023-04-08T01:35:42.194Z,0.00
2023-04-08T01:36:42.129Z,0.00
2023-04-08T01:37:42.126Z,0.00
2023-04-08T01:38:42.121Z,0.00
2023-04-08T01:39:42.096Z,0.00
2023-04-08T01:40:42.109Z,0.00
2023-04-08T01:41:42.081Z,0.00
2023-04-08T01:42:42.083Z,0.00
2023-04-08T01:43:42.059Z,0.00
2023-04-08T01:44:42.051Z,0.00
2023-04-08T01:45:42.030Z,0.00
2023-04-08T01:46:42.035Z,0.00
2023-04-08T01:47:42.105Z,0.00
2023-04-08T01:48:42.001Z,0.00
2023-04-08T01:49:41.986Z,0.00
2023-04-08T01:50:41.987Z,0.00
2023-04-08T01:51:41.975Z,0.00
2023-04-08T01:52:41.978Z,0.00
2023-04-08T01:53:41.949Z,0.00
2023-04-08T01:54:41.938Z,0.00
2023-04-08T01:55:41.925Z,0.00
2023-04-08T01:56:41.920Z,0.00
2023-04-08T01:57:41.918Z,0.00
2023-04-08T01:58:41.898Z,0.00
2023-04-08T01:59:41.888Z,0.00
2023-04-08T02:00:41.881Z,0.00
2023-04-08T02:01:41.925Z,0.00
2023-04-08T02:02:42.107Z,0.00
2023-04-08T02:03:41.883Z,0.00
2023-04-08T02:04:41.961Z,0.00
2023-04-08T02:05:41.825Z,0.00
2023-04-08T02:06:41.817Z,0.00
2023-04-08T02:07:41.818Z,0.00
2023-04-08T02:08:41.801Z,0.00
2023-04-08T02:09:41.781Z,0.00
2023-04-08T02:10:41.775Z,0.00
2023-04-08T02:11:41.786Z,0.00
2023-04-08T02:12:41.769Z,0.00
2023-04-08T02:13:41.749Z,0.00
2023-04-08T02:14:41.741Z,0.00
2023-04-08T02:15:41.732Z,0.00
2023-04-08T02:16:41.793Z,0.00
2023-04-08T02:17:41.730Z,0.00
2023-04-08T02:18:41.693Z,0.00
2023-04-08T02:19:41.678Z,0.00
2023-04-08T02:20:41.675Z,0.00
2023-04-08T02:21:41.654Z,0.00
2023-04-08T02:22:41.668Z,0.00
2023-04-08T02:23:41.645Z,0.00
2023-04-08T02:24:41.621Z,0.00
2023-04-08T02:25:41.623Z,0.00
2023-04-08T02:26:41.615Z,0.00
2023-04-08T02:27:41.611Z,0.00
2023-04-08T02:28:41.582Z,0.00
2023-04-08T02:29:41.582Z,0.00
2023-04-08T02:30:41.572Z,0.00
2023-04-08T02:31:41.606Z,0.00
2023-04-08T02:32:41.607Z,0.00
2023-04-08T02:33:41.522Z,0.00
2023-04-08T02:34:41.515Z,0.00
2023-04-08T02:35:41.575Z,0.00
2023-04-08T02:36:41.504Z,0.00
2023-04-08T02:37:41.501Z,0.00
2023-04-08T02:38:41.473Z,0.00
2023-04-08T02:39:41.469Z,0.00
2023-04-08T02:40:41.455Z,0.00
2023-04-08T02:41:41.443Z,0.00
2023-04-08T02:42:41.457Z,0.00
2023-04-08T02:43:41.419Z,0.00
2023-04-08T02:44:41.430Z,0.00
2023-04-08T02:45:41.452Z,0.00
2023-04-08T02:46:41.398Z,0.00
2023-04-08T02:47:41.445Z,0.00
2023-04-08T02:48:41.380Z,0.00
2023-04-08T02:49:41.352Z,0.00
2023-04-08T02:50:41.356Z,0.00
2023-04-08T02:51:41.335Z,0.00
2023-04-08T02:52:41.333Z,0.00
2023-04-08T02:53:41.323Z,0.00
2023-04-08T02:54:41.315Z,0.00
2023-04-08T02:55:41.302Z,0.00
2023-04-08T02:56:41.296Z,0.00
2023-04-08T02:57:41.276Z,0.00
2023-04-08T02:58:41.276Z,0.00
2023-04-08T02:59:41.247Z,0.00
2023-04-08T03:00:41.299Z,0.00
2023-04-08T03:01:41.264Z,0.00
2023-04-08T03:02:41.361Z,0.00
2023-04-08T03:03:41.442Z,0.00
2023-04-08T03:04:41.198Z,0.00
2023-04-08T03:05:41.193Z,0.00
2023-04-08T03:06:41.187Z,0.00
2023-04-08T03:07:41.165Z,0.00
2023-04-08T03:08:41.184Z,0.00
2023-04-08T03:09:41.147Z,0.00
2023-04-08T03:10:41.136Z,0.00
2023-04-08T03:11:41.124Z,0.00
2023-04-08T03:12:41.120Z,0.00
2023-04-08T03:13:41.116Z,0.00
2023-04-08T03:14:41.093Z,0.00
2023-04-08T03:15:41.084Z,0.00
2023-04-08T03:16:41.115Z,0.00
2023-04-08T03:17:41.097Z,0.00
2023-04-08T03:18:41.066Z,0.00
2023-04-08T03:19:41.042Z,0.00
2023-04-08T03:20:41.030Z,0.00
2023-04-08T03:21:41.016Z,0.00
2023-04-08T03:22:41.028Z,0.00
2023-04-08T03:23:41.008Z,0.00
2023-04-08T03:24:40.988Z,0.00
2023-04-08T03:25:40.988Z,0.00
2023-04-08T03:26:40.970Z,0.00
2023-04-08T03:27:40.950Z,0.00
2023-04-08T03:28:40.955Z,0.00
2023-04-08T03:29:40.929Z,0.00
2023-04-08T03:30:40.929Z,0.00
2023-04-08T03:31:40.929Z,0.00
2023-04-08T03:32:40.919Z,0.00
2023-04-08T03:33:40.910Z,0.00
2023-04-08T03:34:40.880Z,0.00
2023-04-08T03:35:40.942Z,0.00
2023-04-08T03:36:40.861Z,0.00
2023-04-08T03:37:40.843Z,0.00
2023-04-08T03:38:40.857Z,0.00
2023-04-08T03:39:40.828Z,0.00
2023-04-08T03:40:40.821Z,0.00
2023-04-08T03:41:40.802Z,0.00
2023-04-08T03:42:40.819Z,0.00
2023-04-08T03:43:40.792Z,0.00
2023-04-08T03:44:40.773Z,0.00
2023-04-08T03:45:40.766Z,0.00
2023-04-08T03:46:40.753Z,0.00
2023-04-08T03:47:40.763Z,0.00
2023-04-08T03:48:40.743Z,0.00
2023-04-08T03:49:40.715Z,0.00
2023-04-08T03:50:40.712Z,0.00
2023-04-08T03:51:40.700Z,0.00
2023-04-08T03:52:40.688Z,0.00
2023-04-08T03:53:40.692Z,0.00
2023-04-08T03:54:40.673Z,0.00
2023-04-08T03:55:40.666Z,0.00
2023-04-08T03:56:40.659Z,0.00
2023-04-08T03:57:40.645Z,0.00
2023-04-08T03:58:40.645Z,0.00
2023-04-08T03:59:40.621Z,0.00
2023-04-08T04:00:40.617Z,0.00
2023-04-08T04:01:41.952Z,0.00
2023-04-08T04:02:40.672Z,0.00
2023-04-08T04:03:40.663Z,0.00
2023-04-08T04:04:40.631Z,0.00
2023-04-08T04:05:40.554Z,0.00
2023-04-08T04:06:40.565Z,0.00
2023-04-08T04:07:40.548Z,0.00
2023-04-08T04:08:40.537Z,0.00
2023-04-08T04:09:40.514Z,0.00
2023-04-08T04:10:40.503Z,0.00
2023-04-08T04:11:40.492Z,0.00
2023-04-08T04:12:40.482Z,0.00
2023-04-08T04:13:40.484Z,0.00
2023-04-08T04:14:40.465Z,0.00
2023-04-08T04:15:40.477Z,0.00
2023-04-08T04:16:40.443Z,0.00
2023-04-08T04:17:40.462Z,0.00
2023-04-08T04:18:40.445Z,0.00
2023-04-08T04:19:40.406Z,0.00
2023-04-08T04:20:40.400Z,0.00
2023-04-08T04:21:40.391Z,0.00
2023-04-08T04:22:40.392Z,0.00
2023-04-08T04:23:40.377Z,4.00
2023-04-08T04:24:40.362Z,4.00
2023-04-08T04:25:40.343Z,0.00
2023-04-08T04:26:40.342Z,0.00
2023-04-08T04:27:40.340Z,4.00
2023-04-08T04:28:40.331Z,4.00
2023-04-08T04:29:40.296Z,4.00
2023-04-08T04:30:40.284Z,4.00
2023-04-08T04:31:40.393Z,4.00
2023-04-08T04:32:40.314Z,4.00
2023-04-08T04:33:40.254Z,4.00
2023-04-08T04:34:40.253Z,8.00
2023-04-08T04:35:40.243Z,4.00
2023-04-08T04:36:40.239Z,8.00
2023-04-08T04:37:40.227Z,8.00
2023-04-08T04:38:40.209Z,8.00
2023-04-08T04:39:40.207Z,8.00
2023-04-08T04:40:40.179Z,12.00
2023-04-08T04:41:40.166Z,12.00
2023-04-08T04:42:40.163Z,12.00
2023-04-08T04:43:40.149Z,12.00
2023-04-08T04:44:40.150Z,16.00
2023-04-08T04:45:40.122Z,16.00
2023-04-08T04:46:40.160Z,16.00
2023-04-08T04:47:40.184Z,20.00
2023-04-08T04:48:40.099Z,24.00
2023-04-08T04:49:40.109Z,24.00
2023-04-08T04:50:40.081Z,28.00
2023-04-08T04:51:40.082Z,28.00
2023-04-08T04:52:40.059Z,32.00
2023-04-08T04:53:40.050Z,32.00
2023-04-08T04:54:40.043Z,36.00
2023-04-08T04:55:40.026Z,36.00
2023-04-08T04:56:40.019Z,40.00
2023-04-08T04:57:40.017Z,40.00
2023-04-08T04:58:39.988Z,40.00
2023-04-08T04:59:39.992Z,48.00
2023-04-08T05:00:39.969Z,52.00
2023-04-08T05:01:40.061Z,52.00
2023-04-08T05:02:40.272Z,56.00
2023-04-08T05:03:40.024Z,64.00
2023-04-08T05:04:39.998Z,68.00
2023-04-08T05:05:39.926Z,72.00
2023-04-08T05:06:39.916Z,72.00
2023-04-08T05:07:39.903Z,72.00
2023-04-08T05:08:39.892Z,72.00
2023-04-08T05:09:39.901Z,80.00
2023-04-08T05:10:39.878Z,80.00
2023-04-08T05:11:39.873Z,80.00
2023-04-08T05:12:39.862Z,84.00
2023-04-08T05:13:39.856Z,92.00
2023-04-08T05:14:39.841Z,96.00
2023-04-08T05:15:39.829Z,100.00
2023-04-08T05:16:39.888Z,108.00
2023-04-08T05:17:39.857Z,112.00
2023-04-08T05:18:39.795Z,120.00
2023-04-08T05:19:39.797Z,124.00
2023-04-08T05:20:39.779Z,128.00
2023-04-08T05:21:39.767Z,132.00
2023-04-08T05:22:39.753Z,140.00
2023-04-08T05:23:39.752Z,148.00
2023-04-08T05:24:39.763Z,152.00
2023-04-08T05:25:39.720Z,160.00
2023-04-08T05:26:39.717Z,168.00
2023-04-08T05:27:39.701Z,176.00
2023-04-08T05:28:39.691Z,184.00
2023-04-08T05:29:39.693Z,200.00
2023-04-08T05:30:39.678Z,208.00
2023-04-08T05:31:39.739Z,220.00
2023-04-08T05:32:39.669Z,232.00
2023-04-08T05:33:39.639Z,244.00
2023-04-08T05:34:39.643Z,252.00
2023-04-08T05:35:39.682Z,260.00
2023-04-08T05:36:39.601Z,268.00
2023-04-08T05:37:39.603Z,284.00
2023-04-08T05:38:39.580Z,300.00
2023-04-08T05:39:39.587Z,312.00
2023-04-08T05:40:39.562Z,328.00
2023-04-08T05:41:39.551Z,344.00
2023-04-08T05:42:39.548Z,356.00
2023-04-08T05:43:39.532Z,376.00
2023-04-08T05:44:39.538Z,396.00
2023-04-08T05:45:39.520Z,420.00
2023-04-08T05:46:39.526Z,452.00
2023-04-08T05:47:39.532Z,472.00
2023-04-08T05:48:39.486Z,488.00
2023-04-08T05:49:39.488Z,508.00
2023-04-08T05:50:39.465Z,536.00
2023-04-08T05:51:39.454Z,576.00
2023-04-08T05:52:39.439Z,604.00
2023-04-08T05:53:39.446Z,628.00
2023-04-08T05:54:39.432Z,640.00
2023-04-08T05:55:39.415Z,644.00
2023-04-08T05:56:39.433Z,652.00
2023-04-08T05:57:39.399Z,652.00
2023-04-08T05:58:39.397Z,644.00
2023-04-08T05:59:39.536Z,644.00
2023-04-08T06:00:39.357Z,640.00
2023-04-08T06:01:39.401Z,640.00
2023-04-08T06:02:39.538Z,636.00
2023-04-08T06:03:39.451Z,636.00
2023-04-08T06:04:39.510Z,640.00
2023-04-08T06:05:39.310Z,648.00
2023-04-08T06:06:39.302Z,644.00
2023-04-08T06:07:39.301Z,636.00
2023-04-08T06:08:39.282Z,644.00
2023-04-08T06:09:39.288Z,652.00
2023-04-08T06:10:39.261Z,676.00
2023-04-08T06:11:39.253Z,704.00
2023-04-08T06:12:39.245Z,732.00
2023-04-08T06:13:39.236Z,760.00
2023-04-08T06:14:39.227Z,792.00
2023-04-08T06:15:39.215Z,824.00
2023-04-08T06:16:39.265Z,856.00
2023-04-08T06:17:39.210Z,896.00
2023-04-08T06:18:39.177Z,944.00
2023-04-08T06:19:39.185Z,984.00
2023-04-08T06:20:39.165Z,1024.00
2023-04-08T06:21:39.149Z,1060.00
2023-04-08T06:22:39.141Z,1080.00
2023-04-08T06:23:39.132Z,1080.00
2023-04-08T06:24:39.121Z,1064.00
2023-04-08T06:25:39.118Z,1048.00
2023-04-08T06:26:39.100Z,1040.00
2023-04-08T06:27:39.096Z,1032.00
2023-04-08T06:28:39.091Z,1028.00
2023-04-08T06:29:39.720Z,1032.00
2023-04-08T06:30:39.065Z,1044.00
2023-04-08T06:31:39.097Z,1068.00
2023-04-08T06:32:39.092Z,1096.00
2023-04-08T06:33:39.035Z,1108.00
2023-04-08T06:34:39.039Z,1100.00
2023-04-08T06:35:39.075Z,1084.00
2023-04-08T06:36:38.997Z,1072.00
2023-04-08T06:37:39.035Z,1064.00
2023-04-08T06:38:38.979Z,1072.00
2023-04-08T06:39:38.989Z,1088.00
2023-04-08T06:40:38.960Z,1092.00
2023-04-08T06:41:38.954Z,1092.00
2023-04-08T06:42:38.936Z,1068.00
2023-04-08T06:43:38.926Z,1028.00
2023-04-08T06:44:38.964Z,1016.00
2023-04-08T06:45:39.234Z,1024.00
2023-04-08T06:46:38.899Z,1048.00
2023-04-08T06:47:38.960Z,1056.00
2023-04-08T06:48:38.876Z,1020.00
2023-04-08T06:49:38.886Z,956.00
2023-04-08T06:50:38.857Z,916.00
2023-04-08T06:51:38.852Z,912.00
2023-04-08T06:52:38.840Z,936.00
2023-04-08T06:53:38.837Z,988.00
2023-04-08T06:54:38.835Z,1060.00
2023-04-08T06:55:38.814Z,1160.00
2023-04-08T06:56:38.808Z,1328.00
2023-04-08T06:57:38.802Z,1528.00
2023-04-08T06:58:38.776Z,1708.00
2023-04-08T06:59:38.785Z,1888.00
2023-04-08T07:00:38.766Z,2040.00
2023-04-08T07:01:38.814Z,2064.00
2023-04-08T07:02:38.837Z,2012.00
2023-04-08T07:03:38.814Z,1944.00
2023-04-08T07:04:38.747Z,1848.00
2023-04-08T07:05:38.712Z,1712.00
2023-04-08T07:06:38.698Z,1488.00
2023-04-08T07:07:38.698Z,1264.00
2023-04-08T07:08:38.695Z,1136.00
2023-04-08T07:09:38.690Z,1072.00
2023-04-08T07:10:38.664Z,1068.00
2023-04-08T07:11:38.672Z,1064.00
2023-04-08T07:12:38.643Z,1108.00
2023-04-08T07:13:38.651Z,1180.00
2023-04-08T07:14:38.639Z,1252.00
2023-04-08T07:15:38.616Z,1272.00
2023-04-08T07:16:38.703Z,1188.00
2023-04-08T07:17:38.632Z,1076.00
2023-04-08T07:18:38.590Z,1020.00
2023-04-08T07:19:38.597Z,1024.00
2023-04-08T07:20:38.595Z,1100.00
2023-04-08T07:21:38.564Z,1196.00
2023-04-08T07:22:38.553Z,1192.00
2023-04-08T07:23:38.544Z,1096.00
2023-04-08T07:24:38.543Z,1012.00
2023-04-08T07:25:38.531Z,1044.00
2023-04-08T07:26:38.515Z,1248.00
2023-04-08T07:27:38.497Z,1612.00
2023-04-08T07:28:38.504Z,1992.00
2023-04-08T07:29:38.507Z,2172.00
2023-04-08T07:30:38.531Z,2164.00
2023-04-08T07:31:38.465Z,2076.00
2023-04-08T07:32:38.465Z,2000.00
2023-04-08T07:33:38.442Z,1964.00
2023-04-08T07:34:38.437Z,1940.00
2023-04-08T07:35:38.447Z,1880.00
2023-04-08T07:36:38.435Z,1772.00
2023-04-08T07:37:38.394Z,1604.00
2023-04-08T07:38:38.379Z,1532.00
2023-04-08T07:39:38.380Z,1588.00
2023-04-08T07:40:38.359Z,1712.00
2023-04-08T07:41:38.364Z,1904.00
2023-04-08T07:42:40.261Z,2032.00
2023-04-08T07:43:38.328Z,2044.00
2023-04-08T07:44:38.329Z,2076.00
2023-04-08T07:45:38.312Z,2156.00
2023-04-08T07:46:38.399Z,2232.00
2023-04-08T07:47:38.308Z,2280.00
2023-04-08T07:48:38.277Z,2228.00
2023-04-08T07:49:38.267Z,2124.00
2023-04-08T07:51:08.284Z,2044.00
2023-04-08T07:51:39.252Z,1984.00
2023-04-08T07:52:38.232Z,1996.00
2023-04-08T07:53:38.302Z,2020.00
2023-04-08T07:54:38.224Z,2024.00
2023-04-08T07:55:38.215Z,1992.00
2023-04-08T07:56:38.207Z,2016.00
2023-04-08T07:57:38.228Z,2076.00
2023-04-08T07:58:38.181Z,2088.00
2023-04-08T07:59:38.166Z,2072.00
2023-04-08T08:00:38.178Z,2064.00
2023-04-08T08:01:38.148Z,2068.00
2023-04-08T08:02:38.178Z,2056.00
2023-04-08T08:03:38.252Z,2008.00
2023-04-08T08:04:38.313Z,2020.00
2023-04-08T08:05:38.108Z,2100.00
2023-04-08T08:06:38.085Z,2184.00
2023-04-08T08:07:38.076Z,2264.00
2023-04-08T08:08:38.061Z,2340.00
2023-04-08T08:09:38.058Z,2424.00
2023-04-08T08:10:38.047Z,2532.00
2023-04-08T08:11:38.032Z,2476.00
2023-04-08T08:12:38.022Z,2300.00
2023-04-08T08:13:38.012Z,2196.00
2023-04-08T08:14:37.998Z,2136.00
2023-04-08T08:15:38.019Z,2068.00
2023-04-08T08:16:37.982Z,1992.00
2023-04-08T08:17:37.988Z,1888.00
2023-04-08T08:18:37.962Z,1860.00
2023-04-08T08:19:37.952Z,1808.00
2023-04-08T08:20:37.942Z,1756.00
2023-04-08T08:21:37.943Z,1720.00
2023-04-08T08:22:44.328Z,1748.00
2023-04-08T08:23:38.918Z,1824.00
2023-04-08T08:24:37.910Z,1804.00
2023-04-08T08:25:37.892Z,1772.00
2023-04-08T08:26:37.875Z,1788.00
2023-04-08T08:27:37.866Z,1812.00
2023-04-08T08:28:37.855Z,1792.00
2023-04-08T08:29:37.843Z,1728.00
2023-04-08T08:30:37.839Z,1684.00
2023-04-08T08:31:37.889Z,1648.00
2023-04-08T08:32:37.826Z,1604.00
2023-04-08T08:33:37.815Z,1576.00
2023-04-08T08:34:37.795Z,1584.00
2023-04-08T08:35:37.849Z,1596.00
2023-04-08T08:36:39.414Z,1616.00
2023-04-08T08:37:37.760Z,1648.00
2023-04-08T08:38:37.764Z,1656.00
2023-04-08T08:39:37.765Z,1640.00
2023-04-08T08:40:37.734Z,1620.00
2023-04-08T08:41:37.757Z,1620.00
2023-04-08T08:42:37.711Z,1632.00
2023-04-08T08:43:37.700Z,1664.00
2023-04-08T08:44:37.682Z,1656.00
2023-04-08T08:45:37.689Z,1612.00
2023-04-08T08:46:37.768Z,1576.00
2023-04-08T08:47:37.689Z,1544.00
2023-04-08T08:48:37.639Z,1532.00
2023-04-08T08:49:37.636Z,1504.00
2023-04-08T08:50:37.630Z,1484.00
2023-04-08T08:51:37.612Z,1456.00
2023-04-08T08:52:37.625Z,1392.00
2023-04-08T08:53:37.594Z,1368.00
2023-04-08T08:54:37.580Z,1404.00
2023-04-08T08:56:37.561Z,1528.00
2023-04-08T08:57:37.599Z,1588.00
2023-04-08T08:58:37.529Z,1664.00
2023-04-08T08:59:37.522Z,1732.00
2023-04-08T09:00:37.529Z,1816.00
2023-04-08T09:01:37.759Z,1948.00
2023-04-08T09:02:37.619Z,2132.00
2023-04-08T09:03:37.596Z,2348.00
2023-04-08T09:04:37.578Z,2516.00
2023-04-08T09:05:37.566Z,2604.00
2023-04-08T09:06:37.449Z,2564.00
2023-04-08T09:07:37.440Z,2512.00
2023-04-08T09:08:37.435Z,2568.00
2023-04-08T09:09:37.420Z,2624.00
2023-04-08T09:10:37.414Z,2636.00
2023-04-08T09:11:37.394Z,2652.00
2023-04-08T09:12:37.384Z,2720.00
2023-04-08T09:13:37.371Z,2716.00
2023-04-08T09:14:37.367Z,2720.00
2023-04-08T09:15:37.359Z,2740.00
2023-04-08T09:16:37.382Z,2728.00
2023-04-08T09:17:37.386Z,2692.00
2023-04-08T09:18:37.322Z,2836.00
2023-04-08T09:19:37.317Z,3044.00
2023-04-08T09:20:37.407Z,3172.00
2023-04-08T09:21:37.288Z,3160.00
2023-04-08T09:22:37.283Z,3076.00
2023-04-08T09:23:37.263Z,3096.00
2023-04-08T09:24:37.407Z,3260.00
2023-04-08T09:25:37.279Z,3440.00
2023-04-08T09:26:37.240Z,3640.00
2023-04-08T09:27:37.222Z,3728.00
2023-04-08T09:28:37.221Z,3824.00
2023-04-08T09:29:39.659Z,3944.00
2023-04-08T09:30:37.271Z,4048.00
2023-04-08T09:31:37.211Z,4048.00
2023-04-08T09:32:37.196Z,3956.00
2023-04-08T09:33:37.161Z,3864.00
2023-04-08T09:34:37.155Z,3920.00
2023-04-08T09:35:37.257Z,3932.00
2023-04-08T09:36:37.152Z,3896.00
2023-04-08T09:37:37.129Z,3896.00
2023-04-08T09:38:37.111Z,3704.00
2023-04-08T09:39:37.094Z,3460.00
2023-04-08T09:40:37.091Z,3280.00
2023-04-08T09:41:37.101Z,3156.00
2023-04-08T09:42:37.065Z,3020.00
2023-04-08T09:43:37.061Z,2808.00
2023-04-08T09:44:37.056Z,2624.00
2023-04-08T09:45:37.106Z,2524.00
2023-04-08T09:46:37.047Z,2412.00
2023-04-08T09:47:37.066Z,2300.00
2023-04-08T09:48:37.012Z,2312.00
2023-04-08T09:49:36.997Z,2368.00
2023-04-08T09:50:36.992Z,2312.00
2023-04-08T09:51:36.996Z,2304.00
2023-04-08T09:52:36.987Z,2316.00
2023-04-08T09:53:36.963Z,2364.00
2023-04-08T09:54:36.966Z,2436.00
2023-04-08T09:55:36.941Z,2536.00
2023-04-08T09:56:36.938Z,2736.00
2023-04-08T09:57:36.926Z,2960.00
2023-04-08T09:58:36.909Z,3176.00
2023-04-08T09:59:36.909Z,3236.00
2023-04-08T10:00:36.909Z,3172.00
2023-04-08T10:01:37.051Z,3244.00
2023-04-08T10:02:36.974Z,3364.00
2023-04-08T10:03:36.930Z,3356.00
2023-04-08T10:04:36.872Z,3316.00
2023-04-08T10:05:36.834Z,3264.00
2023-04-08T10:06:36.841Z,3192.00
2023-04-08T10:07:36.820Z,3272.00
2023-04-08T10:08:36.811Z,3340.00
2023-04-08T10:09:36.787Z,3344.00
2023-04-08T10:10:36.786Z,3308.00
2023-04-08T10:11:36.782Z,3392.00
2023-04-08T10:12:36.764Z,3268.00
2023-04-08T10:13:36.758Z,3148.00
2023-04-08T10:14:36.742Z,3188.00
2023-04-08T10:15:36.741Z,3132.00
2023-04-08T10:16:36.753Z,3072.00
2023-04-08T10:17:36.846Z,2988.00
2023-04-08T10:18:36.692Z,2932.00
2023-04-08T10:19:36.683Z,2984.00
2023-04-08T10:20:36.716Z,3132.00
2023-04-08T10:21:36.674Z,3336.00
2023-04-08T10:22:36.651Z,3540.00
2023-04-08T10:23:36.643Z,3644.00
2023-04-08T10:24:36.629Z,3696.00
2023-04-08T10:25:36.620Z,3728.00
2023-04-08T10:26:36.647Z,3568.00
2023-04-08T10:27:36.608Z,3312.00
2023-04-08T10:28:36.586Z,3048.00
2023-04-08T10:29:36.577Z,2896.00
2023-04-08T10:30:36.562Z,2836.00
2023-04-08T10:31:36.641Z,2792.00
2023-04-08T10:32:36.640Z,2708.00
2023-04-08T10:33:40.020Z,2592.00
2023-04-08T10:34:36.526Z,2500.00
2023-04-08T10:35:36.548Z,2412.00
2023-04-08T10:36:36.506Z,2304.00
2023-04-08T10:37:36.508Z,2232.00
2023-04-08T10:38:36.480Z,2196.00
2023-04-08T10:39:38.640Z,2128.00
2023-04-08T10:40:36.474Z,2096.00
2023-04-08T10:41:36.455Z,2100.00
2023-04-08T10:42:36.455Z,2092.00
2023-04-08T10:43:36.429Z,2124.00
2023-04-08T10:44:36.420Z,2128.00
2023-04-08T10:45:36.453Z,2116.00
2023-04-08T10:46:36.419Z,2084.00
2023-04-08T10:47:36.441Z,2056.00
2023-04-08T10:48:36.386Z,2016.00
2023-04-08T10:49:36.369Z,1972.00
2023-04-08T10:50:36.362Z,1960.00
2023-04-08T10:51:36.356Z,1968.00
2023-04-08T10:52:36.355Z,1964.00
2023-04-08T10:53:36.333Z,1916.00
2023-04-08T10:54:36.323Z,1860.00
2023-04-08T10:55:36.312Z,1860.00
2023-04-08T10:56:36.301Z,1868.00
2023-04-08T10:57:36.297Z,1796.00
2023-04-08T10:58:36.291Z,1704.00
2023-04-08T10:59:36.266Z,1620.00
2023-04-08T11:00:36.283Z,1536.00
2023-04-08T11:01:36.261Z,1456.00
2023-04-08T11:02:36.411Z,1416.00
2023-04-08T11:03:36.527Z,1400.00
2023-04-08T11:04:36.347Z,1420.00
2023-04-08T11:05:36.200Z,1436.00
2023-04-08T11:06:36.198Z,1460.00
2023-04-08T11:07:36.208Z,1540.00
2023-04-08T11:08:36.175Z,1668.00
2023-04-08T11:09:36.162Z,1800.00
2023-04-08T11:10:36.156Z,1924.00
2023-04-08T11:11:36.175Z,2084.00
2023-04-08T11:12:36.143Z,2284.00
2023-04-08T11:13:36.117Z,2452.00
2023-04-08T11:14:36.110Z,2488.00
2023-04-08T11:15:36.156Z,2484.00
2023-04-08T11:16:36.127Z,2508.00
2023-04-08T11:17:36.143Z,2572.00
2023-04-08T11:18:36.076Z,2640.00
2023-04-08T11:19:36.064Z,2624.00
2023-04-08T11:20:36.098Z,2580.00
2023-04-08T11:21:36.047Z,2536.00
2023-04-08T11:22:36.055Z,2416.00
2023-04-08T11:23:36.014Z,2292.00
2023-04-08T11:24:36.011Z,2280.00
2023-04-08T11:25:36.074Z,2448.00
2023-04-08T11:26:50.525Z,2720.00
2023-04-08T11:27:35.992Z,2920.00
2023-04-08T11:28:35.966Z,2932.00
2023-04-08T11:29:35.949Z,2924.00
2023-04-08T11:30:35.952Z,2988.00
2023-04-08T11:31:36.051Z,3088.00
2023-04-08T11:32:36.053Z,3172.00
2023-04-08T11:33:35.918Z,3232.00
2023-04-08T11:34:35.907Z,3272.00
2023-04-08T11:35:35.936Z,3348.00
2023-04-08T11:36:35.884Z,3364.00
2023-04-08T11:37:35.886Z,3220.00
2023-04-08T11:38:35.864Z,3148.00
2023-04-08T11:39:36.976Z,3196.00
2023-04-08T11:40:35.856Z,3292.00
2023-04-08T11:41:35.853Z,3132.00
2023-04-08T11:42:35.835Z,3236.00
2023-04-08T11:43:35.809Z,3372.00
2023-04-08T11:44:35.815Z,3332.00
2023-04-08T11:45:35.796Z,3252.00
2023-04-08T11:46:35.832Z,3184.00
2023-04-08T11:47:35.816Z,3132.00
2023-04-08T11:48:35.771Z,3092.00
2023-04-08T11:49:35.757Z,3024.00
2023-04-08T11:50:35.748Z,2916.00
2023-04-08T11:51:35.750Z,2840.00
2023-04-08T11:52:35.734Z,2772.00
2023-04-08T11:53:36.876Z,2732.00
2023-04-08T11:54:36.842Z,2728.00
2023-04-08T11:55:36.878Z,2760.00
2023-04-08T11:56:36.867Z,2852.00
2023-04-08T11:57:36.854Z,3008.00
2023-04-08T11:58:36.797Z,3084.00
2023-04-08T11:59:36.808Z,3096.00
2023-04-08T12:00:36.783Z,3084.00
2023-04-08T12:01:36.815Z,2984.00
2023-04-08T12:02:39.612Z,2880.00
2023-04-08T12:03:36.916Z,2880.00
2023-04-08T12:04:36.790Z,2948.00
2023-04-08T12:05:36.749Z,3056.00
2023-04-08T12:06:36.729Z,3120.00
2023-04-08T12:07:36.760Z,3084.00
2023-04-08T12:08:36.739Z,3048.00
2023-04-08T12:09:36.740Z,3064.00
2023-04-08T12:10:36.752Z,3152.00
2023-04-08T12:11:36.658Z,3316.00
2023-04-08T12:12:36.644Z,3496.00
2023-04-08T12:13:36.663Z,3632.00
2023-04-08T12:14:36.657Z,3744.00
2023-04-08T12:15:36.640Z,3844.00
2023-04-08T12:16:36.735Z,3916.00
2023-04-08T12:17:36.656Z,3972.00
2023-04-08T12:18:36.616Z,4092.00
2023-04-08T12:19:38.358Z,4464.00
2023-04-08T12:20:37.612Z,4676.00
2023-04-08T12:21:36.571Z,4560.00
2023-04-08T12:22:36.566Z,4368.00
2023-04-08T12:23:36.586Z,4140.00
2023-04-08T12:24:36.566Z,4200.00
2023-04-08T12:25:36.551Z,4408.00
2023-04-08T12:26:36.536Z,4420.00
2023-04-08T12:27:36.508Z,4508.00
2023-04-08T12:28:36.533Z,4660.00
2023-04-08T12:29:36.516Z,4892.00
2023-04-08T12:30:36.494Z,5384.00
2023-04-08T12:31:36.536Z,6080.00
2023-04-08T12:32:36.518Z,7044.00
2023-04-08T12:33:36.485Z,7784.00
2023-04-08T12:34:36.466Z,7468.00
2023-04-08T12:35:36.460Z,6564.00
2023-04-08T12:36:36.431Z,6048.00